This is the latest recevied weather packets stored in our database for station/object ED3YAB-7. If no packets are shown the sender has not sent any weather packets the latest 10 day(s).
| Time | Temp. | Humidity | Pressure | Rain* | Wind** | Luminosity | Snow |
|---|---|---|---|---|---|---|---|
| 1777918682 | 16.67° C | 57% | 1016.1 hPa | - | - | - | - |
| 1777918650 | 16.67° C | 57% | 1016.1 hPa | - | - | - | - |
| 1777917460 | 17.78° C | 55% | 1015.6 hPa | - | - | - | - |
| 1777917450 | 17.78° C | 55% | 1015.6 hPa | - | - | - | - |
| 1777916250 | 18.33° C | 54% | 1015.5 hPa | - | - | - | - |
| 1777915059 | 18.33° C | 52% | 1015.8 hPa | - | - | - | - |
| 1777915051 | 18.33° C | 52% | 1015.8 hPa | - | - | - | - |
| 1777913859 | 18.89° C | 51% | 1015.9 hPa | - | - | - | - |
| 1777913851 | 18.89° C | 51% | 1015.9 hPa | - | - | - | - |
| 1777912651 | 21.67° C | 45% | 1015.9 hPa | - | - | - | - |
| 1777911459 | 24.44° C | 42% | 1015.8 hPa | - | - | - | - |
| 1777911451 | 24.44° C | 42% | 1015.8 hPa | - | - | - | - |
| 1777910258 | 24.44° C | 43% | 1016.1 hPa | - | - | - | - |
| 1777910251 | 24.44° C | 43% | 1016.1 hPa | - | - | - | - |
| 1777909076 | 20° C | 51% | 1016.3 hPa | - | - | - | - |
| 1777909075 | 20° C | 51% | 1016.3 hPa | - | - | - | - |
| 1777907851 | 19.44° C | 54% | 1016.4 hPa | - | - | - | - |
| 1777906658 | 18.33° C | 57% | 1016.5 hPa | - | - | - | - |
| 1777906650 | 18.33° C | 57% | 1016.5 hPa | - | - | - | - |
| 1777905450 | 17.22° C | 58% | 1016.7 hPa | - | - | - | - |
| 1777904258 | 18.33° C | 56% | 1016.7 hPa | - | - | - | - |
| 1777904250 | 18.33° C | 56% | 1016.7 hPa | - | - | - | - |
| 1777903057 | 19.44° C | 53% | 1016.7 hPa | - | - | - | - |
| 1777903052 | 19.44° C | 53% | 1016.7 hPa | - | - | - | - |
| 1777901850 | 19.44° C | 50% | 1016.9 hPa | - | - | - | - |
* Rain since midnight (hover to see other rain measurements)
** Current wind speed in m/s (hover to see current wind gust speed)